createdAt,value
2019-01-24T00:01:29.971Z,100596.42
2019-01-24T00:03:31.510Z,100594.82
2019-01-24T00:05:32.863Z,100597.43
2019-01-24T00:07:34.205Z,100599.64
2019-01-24T00:09:35.629Z,100602.71
2019-01-24T00:11:36.995Z,100606.42
2019-01-24T00:13:38.360Z,100603.06
2019-01-24T00:15:39.861Z,100605.45
2019-01-24T00:17:41.281Z,100611.25
2019-01-24T00:19:42.625Z,100610.95
2019-01-24T00:21:44.572Z,100611.42
2019-01-24T00:23:45.934Z,100599.69
2019-01-24T00:25:47.271Z,100602.08
2019-01-24T00:27:48.682Z,100604.99
2019-01-24T00:29:50.840Z,100610.47
2019-01-24T00:31:52.182Z,100610.61
2019-01-24T00:33:53.591Z,100617.38
2019-01-24T00:35:54.982Z,100618.77
2019-01-24T00:37:56.329Z,100610.80
2019-01-24T00:39:57.867Z,100612.88
2019-01-24T00:41:59.218Z,100615.46
2019-01-24T00:44:00.874Z,100616.75
2019-01-24T00:46:02.253Z,100614.33
2019-01-24T00:48:03.860Z,100620.61
2019-01-24T00:50:09.444Z,100621.26
2019-01-24T00:52:10.870Z,100624.33
2019-01-24T00:54:12.282Z,100627.20
2019-01-24T00:56:13.650Z,100627.67
2019-01-24T00:58:15.008Z,100624.16
2019-01-24T01:00:24.734Z,100629.48
2019-01-24T01:02:26.085Z,100626.73
2019-01-24T01:04:29.790Z,100631.88
2019-01-24T01:06:30.725Z,100635.42
2019-01-24T01:08:32.297Z,100632.85
2019-01-24T01:10:33.649Z,100637.81
2019-01-24T01:12:35.105Z,100636.37
2019-01-24T01:14:38.400Z,100643.58
2019-01-24T01:16:39.748Z,100638.48
2019-01-24T01:18:41.197Z,100639.14
2019-01-24T01:20:44.490Z,100639.09
2019-01-24T01:22:45.836Z,100633.20
2019-01-24T01:24:47.180Z,100639.12
2019-01-24T01:26:48.819Z,100637.36
2019-01-24T01:28:50.153Z,100637.16
2019-01-24T01:30:51.624Z,100641.86
2019-01-24T01:32:53.229Z,100636.87
2019-01-24T01:34:54.585Z,100641.38
2019-01-24T01:36:55.990Z,100636.69
2019-01-24T01:38:57.711Z,100643.80
2019-01-24T01:40:59.064Z,100644.92
2019-01-24T01:43:00.508Z,100643.29
2019-01-24T01:45:02.004Z,100642.53
2019-01-24T01:47:03.548Z,100649.30
2019-01-24T01:49:04.888Z,100650.91
2019-01-24T01:51:06.291Z,100650.08
2019-01-24T01:53:07.700Z,100648.80
2019-01-24T01:55:09.545Z,100647.17
2019-01-24T01:57:10.891Z,100649.38
2019-01-24T01:59:12.284Z,100653.79
2019-01-24T02:01:13.655Z,100648.50
2019-01-24T02:03:14.987Z,100645.28
2019-01-24T02:05:16.688Z,100647.97
2019-01-24T02:07:18.052Z,100644.00
2019-01-24T02:09:19.412Z,100654.38
2019-01-24T02:11:20.830Z,100648.33
2019-01-24T02:13:22.194Z,100650.06
2019-01-24T02:15:23.536Z,100646.55
2019-01-24T02:17:24.946Z,100645.10
2019-01-24T02:19:26.294Z,100640.44
2019-01-24T02:21:28.365Z,100638.02
2019-01-24T02:23:29.758Z,100635.44
2019-01-24T02:25:31.401Z,100638.80
2019-01-24T02:27:32.746Z,100639.14
2019-01-24T02:29:34.153Z,100636.74
2019-01-24T02:31:35.495Z,100638.17
2019-01-24T02:33:36.839Z,100644.77
2019-01-24T02:35:38.636Z,100643.31
2019-01-24T02:37:40.025Z,100642.66
2019-01-24T02:39:41.400Z,100652.02
2019-01-24T02:41:42.819Z,100648.19
2019-01-24T02:43:44.162Z,100651.68
2019-01-24T02:45:45.514Z,100653.13
2019-01-24T02:47:47.119Z,100657.96
2019-01-24T02:49:48.484Z,100658.62
2019-01-24T02:51:49.892Z,100655.23
2019-01-24T02:53:52.405Z,100656.96
2019-01-24T02:55:53.812Z,100661.67
2019-01-24T02:57:55.234Z,100656.05
2019-01-24T02:59:56.571Z,100658.29
2019-01-24T03:01:57.921Z,100664.70
2019-01-24T03:03:59.338Z,100660.23
2019-01-24T03:06:00.702Z,100663.92
2019-01-24T03:08:02.057Z,100654.63
2019-01-24T03:10:08.581Z,100660.87
2019-01-24T03:12:09.934Z,100663.44
2019-01-24T03:14:11.279Z,100659.27
2019-01-24T03:16:12.697Z,100655.73
2019-01-24T03:18:14.050Z,100663.78
2019-01-24T03:20:16.013Z,100666.49
2019-01-24T03:22:17.482Z,100669.73
2019-01-24T03:24:18.877Z,100671.19
2019-01-24T03:26:20.243Z,100672.01
2019-01-24T03:28:21.646Z,100677.66
2019-01-24T03:30:23.124Z,100671.88
2019-01-24T03:32:24.616Z,100675.73
2019-01-24T03:34:25.952Z,100670.11
2019-01-24T03:36:27.545Z,100675.90
2019-01-24T03:38:29.347Z,100675.38
2019-01-24T03:40:30.693Z,100674.25
2019-01-24T03:42:32.060Z,100680.56
2019-01-24T03:44:33.446Z,100678.31
2019-01-24T03:46:34.804Z,100686.34
2019-01-24T03:48:36.351Z,100684.73
2019-01-24T03:50:37.700Z,100684.41
2019-01-24T03:52:39.040Z,100691.66
2019-01-24T03:54:40.488Z,100683.88
2019-01-24T03:56:41.839Z,100688.10
2019-01-24T03:58:43.295Z,100687.59
2019-01-24T04:00:44.690Z,100690.02
2019-01-24T04:02:46.279Z,100686.34
2019-01-24T04:04:47.835Z,100697.27
2019-01-24T04:06:49.236Z,100688.60
2019-01-24T04:08:50.605Z,100688.93
2019-01-24T04:10:51.959Z,100682.49
2019-01-24T04:12:53.381Z,100678.27
2019-01-24T04:14:54.738Z,100693.57
2019-01-24T04:16:56.104Z,100687.14
2019-01-24T04:18:57.499Z,100691.83
2019-01-24T04:20:58.885Z,100692.44
2019-01-24T04:23:00.234Z,100689.72
2019-01-24T04:25:01.729Z,100692.34
2019-01-24T04:27:03.185Z,100697.75
2019-01-24T04:29:04.575Z,100700.36
2019-01-24T04:31:05.944Z,100699.69
2019-01-24T04:33:07.272Z,100702.28
2019-01-24T04:35:09.905Z,100699.37
2019-01-24T04:37:11.330Z,100704.19
2019-01-24T04:39:12.672Z,100709.00
2019-01-24T04:41:14.094Z,100709.36
2019-01-24T04:43:15.474Z,100710.81
2019-01-24T04:45:17.089Z,100707.06
2019-01-24T04:47:18.484Z,100716.61
2019-01-24T04:49:19.844Z,100720.14
2019-01-24T04:51:22.390Z,100728.20
2019-01-24T04:53:23.782Z,100723.87
2019-01-24T04:55:25.131Z,100724.98
2019-01-24T04:57:26.783Z,100730.33
2019-01-24T04:59:28.181Z,100734.97
2019-01-24T05:01:29.549Z,100730.48
2019-01-24T05:03:30.928Z,100729.52
2019-01-24T05:05:32.321Z,100737.86
2019-01-24T05:07:33.676Z,100734.30
2019-01-24T05:09:35.017Z,100731.27
2019-01-24T05:11:36.518Z,100733.52
2019-01-24T05:13:37.864Z,100729.66
2019-01-24T05:15:39.216Z,100731.27
2019-01-24T05:17:40.719Z,100733.22
2019-01-24T05:19:42.063Z,100735.73
2019-01-24T05:21:43.815Z,100740.47
2019-01-24T05:23:45.235Z,100734.47
2019-01-24T05:25:46.607Z,100737.19
2019-01-24T05:27:48.074Z,100738.72
2019-01-24T05:29:49.457Z,100739.00
2019-01-24T05:31:50.906Z,100741.91
2019-01-24T05:33:52.260Z,100746.20
2019-01-24T05:35:53.635Z,100748.64
2019-01-24T05:37:55.066Z,100749.01
2019-01-24T05:39:56.424Z,100750.95
2019-01-24T05:41:57.895Z,100758.50
2019-01-24T05:43:59.246Z,100759.44
2019-01-24T05:46:00.594Z,100765.40
2019-01-24T05:48:01.972Z,100764.16
2019-01-24T05:50:08.122Z,100768.98
2019-01-24T05:52:09.480Z,100769.17
2019-01-24T05:54:10.879Z,100770.16
2019-01-24T05:56:12.310Z,100769.30
2019-01-24T05:58:13.661Z,100767.53
2019-01-24T06:00:20.081Z,100773.28
2019-01-24T06:02:21.447Z,100772.04
2019-01-24T06:04:22.803Z,100772.19
2019-01-24T06:06:24.180Z,100775.60
2019-01-24T06:08:45.476Z,100774.92
2019-01-24T06:11:06.732Z,100729.34
2019-01-24T06:13:28.012Z,100785.03
2019-01-24T06:15:49.294Z,100788.81
2019-01-24T06:18:10.571Z,100747.18
2019-01-24T06:20:31.827Z,100789.24
2019-01-24T06:22:53.380Z,100792.80
2019-01-24T06:25:08.558Z,100791.58
2019-01-24T06:27:29.791Z,100790.98
2019-01-24T06:29:51.079Z,100795.16
2019-01-24T06:32:12.316Z,100791.15
2019-01-24T06:34:33.616Z,100787.02
2019-01-24T06:36:54.864Z,100791.81
2019-01-24T06:39:16.163Z,100749.88
2019-01-24T06:41:37.430Z,100753.79
2019-01-24T06:43:58.706Z,100798.91
2019-01-24T06:46:20.017Z,100803.05
2019-01-24T06:48:41.256Z,100757.91
2019-01-24T06:51:02.610Z,100808.77
2019-01-24T06:53:04.220Z,100803.59
2019-01-24T06:55:45.366Z,100813.25
2019-01-24T06:58:06.669Z,100792.49
2019-01-24T07:00:27.946Z,100823.81
2019-01-24T07:02:49.418Z,100780.11
2019-01-24T07:05:11.078Z,100838.84
2019-01-24T07:07:32.338Z,100784.26
2019-01-24T07:09:53.844Z,100793.35
2019-01-24T07:12:15.533Z,100839.52
2019-01-24T07:14:36.856Z,100801.77
2019-01-24T07:16:51.762Z,100842.88
2019-01-24T07:19:13.068Z,100806.27
2019-01-24T07:21:27.587Z,100841.42
2019-01-24T07:23:48.889Z,100799.07
2019-01-24T07:26:03.358Z,100848.44
2019-01-24T07:28:24.655Z,100809.41
2019-01-24T07:30:45.944Z,100859.06
2019-01-24T07:33:07.246Z,100859.97
2019-01-24T07:35:28.519Z,100854.17
2019-01-24T07:37:49.801Z,100858.22
2019-01-24T07:43:21.099Z,100820.05
2019-01-24T07:45:42.353Z,100867.84
2019-01-24T07:48:03.910Z,100875.52
2019-01-24T07:50:25.302Z,100833.24
2019-01-24T07:52:46.605Z,100874.13
2019-01-24T07:55:29.636Z,100877.55
2019-01-24T07:57:50.942Z,100879.62
2019-01-24T07:59:52.333Z,100878.02
2019-01-24T08:02:13.780Z,100826.50
2019-01-24T08:04:35.093Z,100876.25
2019-01-24T08:06:56.462Z,100839.63
2019-01-24T08:09:17.712Z,100880.80
2019-01-24T08:11:39.002Z,100839.89
2019-01-24T08:14:00.300Z,100834.95
2019-01-24T08:16:23.521Z,100890.34
2019-01-24T08:18:38.926Z,100845.05
2019-01-24T08:21:00.192Z,100841.81
2019-01-24T08:23:21.445Z,100892.09
2019-01-24T08:25:42.749Z,100897.36
2019-01-24T08:28:04.126Z,100853.08
2019-01-24T08:33:35.143Z,100875.38
2019-01-24T08:35:56.400Z,100856.64
2019-01-24T08:38:17.657Z,100901.07
2019-01-24T08:40:38.962Z,100907.24
2019-01-24T08:43:00.224Z,100860.42
2019-01-24T08:45:21.598Z,100905.48
2019-01-24T08:47:42.917Z,100907.16
2019-01-24T08:50:25.944Z,100904.61
2019-01-24T08:52:47.444Z,100908.39
2019-01-24T08:55:32.393Z,100859.91
2019-01-24T08:57:46.958Z,100896.88
2019-01-24T09:00:30.038Z,100903.19
2019-01-24T09:02:51.513Z,100851.81
2019-01-24T09:05:13.101Z,100861.33
2019-01-24T09:07:34.409Z,100906.45
2019-01-24T09:09:55.671Z,100911.48
2019-01-24T09:12:16.932Z,100911.94
2019-01-24T09:14:31.836Z,100914.84
2019-01-24T09:16:53.108Z,100874.98
2019-01-24T09:19:14.394Z,100913.64
2019-01-24T09:21:35.796Z,100864.98
2019-01-24T09:23:57.102Z,100921.61
2019-01-24T09:26:18.348Z,100920.80
2019-01-24T09:28:39.643Z,100922.09
2019-01-24T09:31:00.950Z,100925.91
2019-01-24T09:33:22.250Z,100876.77
2019-01-24T09:35:43.508Z,100874.16
2019-01-24T09:38:05.101Z,100916.94
2019-01-24T09:40:26.355Z,100877.59
2019-01-24T09:42:47.634Z,100868.43
2019-01-24T09:45:32.560Z,100876.68
2019-01-24T09:48:16.546Z,100885.05
2019-01-24T09:50:37.828Z,100877.92
2019-01-24T09:52:59.118Z,100883.01
2019-01-24T09:55:20.565Z,100921.86
2019-01-24T09:57:41.949Z,100932.07
2019-01-24T09:59:57.184Z,100929.10
2019-01-24T10:02:18.438Z,100927.83
2019-01-24T10:04:39.763Z,100927.56
2019-01-24T10:06:41.134Z,100928.89
2019-01-24T10:09:24.454Z,100883.26
2019-01-24T10:11:45.703Z,100888.77
2019-01-24T10:14:06.957Z,100925.06
2019-01-24T10:16:28.285Z,100928.26
2019-01-24T10:18:49.598Z,100932.92
2019-01-24T10:21:10.866Z,100885.28
2019-01-24T10:23:32.165Z,100934.32
2019-01-24T10:25:53.426Z,100937.81
2019-01-24T10:28:14.732Z,100905.03
2019-01-24T10:30:57.781Z,100934.78
2019-01-24T10:33:19.084Z,100892.08
2019-01-24T10:35:40.450Z,100896.61
2019-01-24T10:38:01.792Z,100939.02
2019-01-24T10:40:42.969Z,100941.00
2019-01-24T10:43:04.356Z,100949.48
2019-01-24T10:45:47.424Z,100945.48
2019-01-24T10:48:08.935Z,100901.87
2019-01-24T10:50:30.211Z,100940.59
2019-01-24T10:52:51.511Z,100940.23
2019-01-24T10:58:23.298Z,100939.63
2019-01-24T11:00:44.558Z,100900.47
2019-01-24T11:06:16.218Z,100886.27
2019-01-24T11:08:37.476Z,100893.73
2019-01-24T11:10:58.735Z,100941.28
2019-01-24T11:13:18.904Z,100940.91
2019-01-24T11:15:22.955Z,100938.47
2019-01-24T11:17:24.387Z,100929.14
2019-01-24T11:19:25.741Z,100934.13
2019-01-24T11:21:27.197Z,100933.98
2019-01-24T11:23:28.574Z,100939.13
2019-01-24T11:25:29.928Z,100940.65
2019-01-24T11:27:31.279Z,100947.02
2019-01-24T11:29:32.760Z,100943.41
2019-01-24T11:31:34.172Z,100943.20
2019-01-24T11:33:35.557Z,100948.81
2019-01-24T11:35:37.049Z,100941.20
2019-01-24T11:37:40.350Z,100948.52
2019-01-24T11:39:41.728Z,100941.52
2019-01-24T11:41:43.308Z,100941.56
2019-01-24T11:43:44.664Z,100945.17
2019-01-24T11:45:46.031Z,100947.09
2019-01-24T11:47:47.627Z,100940.34
2019-01-24T11:49:48.997Z,100939.33
2019-01-24T11:51:50.349Z,100944.45
2019-01-24T11:53:53.197Z,100941.73
2019-01-24T11:55:54.905Z,100949.22
2019-01-24T11:57:56.257Z,100943.64
2019-01-24T11:59:57.638Z,100937.80
2019-01-24T12:01:58.991Z,100942.70
2019-01-24T12:04:00.370Z,100941.13
2019-01-24T12:06:01.870Z,100939.16
2019-01-24T12:08:04.419Z,100941.47
2019-01-24T12:10:19.347Z,100944.83
2019-01-24T12:12:20.861Z,100940.76
2019-01-24T12:14:22.269Z,100949.66
2019-01-24T12:16:23.624Z,100943.39
2019-01-24T12:18:25.052Z,100943.96
2019-01-24T12:20:26.905Z,100936.70
2019-01-24T12:22:29.411Z,100939.39
2019-01-24T12:24:30.823Z,100935.42
2019-01-24T12:26:32.287Z,100936.64
2019-01-24T12:28:33.631Z,100934.06
2019-01-24T12:30:36.136Z,100929.83
2019-01-24T12:32:37.487Z,100929.00
2019-01-24T12:34:38.853Z,100928.42
2019-01-24T12:36:40.469Z,100928.43
2019-01-24T12:38:41.996Z,100924.78
2019-01-24T12:40:45.244Z,100929.17
2019-01-24T12:42:46.748Z,100921.89
2019-01-24T12:44:48.123Z,100921.02
2019-01-24T12:46:49.776Z,100924.55
2019-01-24T12:48:51.175Z,100925.41
2019-01-24T12:50:52.529Z,100928.61
2019-01-24T12:52:54.080Z,100922.73
2019-01-24T12:54:55.465Z,100924.45
2019-01-24T12:56:56.913Z,100927.12
2019-01-24T12:58:58.258Z,100925.55
2019-01-24T13:00:59.669Z,100924.09
2019-01-24T13:03:01.023Z,100922.74
2019-01-24T13:05:03.522Z,100923.08
2019-01-24T13:07:04.868Z,100926.14
2019-01-24T13:09:08.120Z,100934.83
2019-01-24T13:11:09.503Z,100934.81
2019-01-24T13:13:10.851Z,100929.24
2019-01-24T13:15:16.711Z,100931.89
2019-01-24T13:17:18.071Z,100933.70
2019-01-24T13:19:19.432Z,100936.41
2019-01-24T13:21:21.002Z,100935.53
2019-01-24T13:23:22.356Z,100936.27
2019-01-24T13:25:27.416Z,100936.61
2019-01-24T13:27:28.792Z,100936.05
2019-01-24T13:29:30.145Z,100930.47
2019-01-24T13:31:31.499Z,100931.67
2019-01-24T13:33:32.873Z,100929.72
2019-01-24T13:35:34.259Z,100934.50
2019-01-24T13:37:35.615Z,100924.98
2019-01-24T13:39:36.969Z,100933.66
2019-01-24T13:41:42.451Z,100941.18
2019-01-24T13:43:43.604Z,100936.69
2019-01-24T13:45:44.993Z,100944.94
2019-01-24T13:47:47.248Z,100938.12
2019-01-24T13:49:48.603Z,100941.65
2019-01-24T13:51:50.016Z,100949.94
2019-01-24T13:53:51.463Z,100950.70
2019-01-24T13:55:54.740Z,100951.82
2019-01-24T13:57:56.147Z,100952.00
2019-01-24T13:59:57.518Z,100951.81
2019-01-24T14:01:58.990Z,100946.36
2019-01-24T14:04:05.430Z,100956.06
2019-01-24T14:06:07.215Z,100960.41
2019-01-24T14:08:08.569Z,100962.72
2019-01-24T14:10:14.436Z,100967.76
2019-01-24T14:12:15.839Z,100968.28
2019-01-24T14:14:17.190Z,100964.22
2019-01-24T14:16:18.543Z,100970.97
2019-01-24T14:18:21.063Z,100970.97
2019-01-24T14:20:22.538Z,100969.30
2019-01-24T14:22:23.894Z,100968.27
2019-01-24T14:24:25.291Z,100968.94
2019-01-24T14:26:26.643Z,100973.94
2019-01-24T14:28:28.078Z,100975.61
2019-01-24T14:30:29.427Z,100970.48
2019-01-24T14:32:30.773Z,100974.82
2019-01-24T14:34:32.190Z,100968.78
2019-01-24T14:36:33.540Z,100969.80
2019-01-24T14:38:34.884Z,100974.22
2019-01-24T14:40:36.412Z,100971.61
2019-01-24T14:42:37.754Z,100964.67
2019-01-24T14:44:39.123Z,100966.08
2019-01-24T14:46:40.533Z,100965.69
2019-01-24T14:48:41.948Z,100963.84
2019-01-24T14:50:43.318Z,100968.96
2019-01-24T14:52:44.861Z,100967.48
2019-01-24T14:54:46.265Z,100976.39
2019-01-24T14:56:47.713Z,100976.48
2019-01-24T14:58:49.170Z,100977.33
2019-01-24T15:00:55.886Z,100974.56
2019-01-24T15:02:57.313Z,100979.09
2019-01-24T15:04:58.665Z,100978.77
2019-01-24T15:07:00.114Z,100979.35
2019-01-24T15:09:01.481Z,100980.11
2019-01-24T15:11:03.960Z,100984.21
2019-01-24T15:13:05.664Z,100992.12
2019-01-24T15:15:11.619Z,100987.00
2019-01-24T15:17:12.997Z,100988.15
2019-01-24T15:19:16.570Z,100991.48
2019-01-24T15:21:17.948Z,100997.88
2019-01-24T15:23:19.302Z,100998.21
2019-01-24T15:25:22.837Z,101005.72
2019-01-24T15:27:24.174Z,101005.32
2019-01-24T15:29:25.531Z,101009.23
2019-01-24T15:31:26.964Z,101012.61
2019-01-24T15:33:28.304Z,101013.98
2019-01-24T15:35:29.755Z,101018.80
2019-01-24T15:37:31.182Z,101016.73
2019-01-24T15:39:32.523Z,101018.92
2019-01-24T15:41:33.950Z,101019.66
2019-01-24T15:43:35.299Z,101019.17
2019-01-24T15:45:37.911Z,101019.44
2019-01-24T15:47:39.418Z,101022.50
2019-01-24T15:49:42.672Z,101026.67
2019-01-24T15:51:44.023Z,101025.56
2019-01-24T15:53:45.883Z,101028.62
2019-01-24T15:55:47.231Z,101027.11
2019-01-24T15:57:48.583Z,101036.68
2019-01-24T15:59:50.012Z,101040.31
2019-01-24T16:01:51.438Z,101043.71
2019-01-24T16:03:52.855Z,101049.09
2019-01-24T16:05:54.226Z,101049.67
2019-01-24T16:08:01.653Z,101052.77
2019-01-24T16:09:58.905Z,101055.70
2019-01-24T16:12:00.258Z,101056.52
2019-01-24T16:14:01.665Z,101055.66
2019-01-24T16:16:05.220Z,101060.58
2019-01-24T16:18:07.476Z,101054.57
2019-01-24T16:20:15.616Z,101057.98
2019-01-24T16:22:17.024Z,101060.77
2019-01-24T16:24:18.537Z,101061.69
2019-01-24T16:26:19.885Z,101062.30
2019-01-24T16:28:24.877Z,101065.02
2019-01-24T16:30:27.960Z,101060.86
2019-01-24T16:32:29.329Z,101060.83
2019-01-24T16:34:30.683Z,101061.13
2019-01-24T16:36:32.110Z,101067.02
2019-01-24T16:38:33.474Z,101069.44
2019-01-24T16:40:34.806Z,101074.00
2019-01-24T16:42:36.239Z,101057.68
2019-01-24T16:44:37.653Z,101064.78
2019-01-24T16:46:39.033Z,101061.42
2019-01-24T16:48:40.448Z,101062.48
2019-01-24T16:50:41.858Z,101070.02
2019-01-24T16:52:43.217Z,101068.61
2019-01-24T16:54:44.648Z,101068.28
2019-01-24T16:56:45.999Z,101072.48
2019-01-24T16:58:47.351Z,101074.33
2019-01-24T17:00:50.068Z,101075.86
2019-01-24T17:02:51.481Z,101078.70
2019-01-24T17:04:52.836Z,101082.39
2019-01-24T17:06:54.188Z,101082.88
2019-01-24T17:08:55.593Z,101078.34
2019-01-24T17:10:56.964Z,101073.36
2019-01-24T17:12:58.433Z,101070.28
2019-01-24T17:15:00.351Z,101071.70
2019-01-24T17:17:01.715Z,101073.33
2019-01-24T17:19:03.662Z,101078.13
2019-01-24T17:21:05.170Z,101078.19
2019-01-24T17:23:06.640Z,101078.60
2019-01-24T17:25:11.646Z,101080.95
2019-01-24T17:27:13.054Z,101078.72
2019-01-24T17:29:14.429Z,101078.05
2019-01-24T17:31:15.790Z,101077.91
2019-01-24T17:33:17.204Z,101075.81
2019-01-24T17:35:18.958Z,101071.28
2019-01-24T17:37:20.507Z,101072.91
2019-01-24T17:39:21.938Z,101071.48
2019-01-24T17:41:23.494Z,101068.80
2019-01-24T17:43:24.867Z,101072.14
2019-01-24T17:45:26.758Z,101065.64
2019-01-24T17:47:28.129Z,101070.55
2019-01-24T17:49:29.503Z,101073.48
2019-01-24T17:51:30.897Z,101073.23
2019-01-24T17:53:32.255Z,101080.31
2019-01-24T17:55:40.204Z,101081.72
2019-01-24T17:57:41.620Z,101073.16
2019-01-24T17:59:42.973Z,101076.94
2019-01-24T18:01:44.408Z,101080.83
2019-01-24T18:03:45.785Z,101081.91
2019-01-24T18:05:47.424Z,101084.26
2019-01-24T18:07:48.961Z,101084.77
2019-01-24T18:09:50.307Z,101087.11
2019-01-24T18:11:51.684Z,101089.16
2019-01-24T18:13:53.096Z,101093.34
2019-01-24T18:15:54.559Z,101095.08
2019-01-24T18:17:56.109Z,101095.89
2019-01-24T18:19:57.512Z,101095.72
2019-01-24T18:21:58.940Z,101096.20
2019-01-24T18:24:00.510Z,101094.21
2019-01-24T18:26:01.963Z,101094.91
2019-01-24T18:28:06.707Z,101099.28
2019-01-24T18:30:21.359Z,101101.80
2019-01-24T18:32:22.706Z,101107.56
2019-01-24T18:34:24.058Z,101111.05
2019-01-24T18:36:25.466Z,101108.55
2019-01-24T18:38:27.025Z,101106.55
2019-01-24T18:40:30.152Z,101117.84
2019-01-24T18:42:31.557Z,101122.87
2019-01-24T18:44:32.910Z,101119.27
2019-01-24T18:46:34.259Z,101113.64
2019-01-24T18:48:35.676Z,101119.36
2019-01-24T18:50:37.190Z,101119.88
2019-01-24T18:52:38.613Z,101127.34
2019-01-24T18:54:40.034Z,101131.59
2019-01-24T18:56:41.416Z,101130.66
2019-01-24T18:58:42.774Z,101135.39
2019-01-24T19:00:45.095Z,101138.33
2019-01-24T19:02:46.646Z,101135.00
2019-01-24T19:04:48.160Z,101138.17
2019-01-24T19:06:49.508Z,101140.92
2019-01-24T19:08:50.864Z,101140.92
2019-01-24T19:10:52.468Z,101143.08
2019-01-24T19:12:53.855Z,101143.56
2019-01-24T19:14:55.233Z,101147.03
2019-01-24T19:16:56.658Z,101153.93
2019-01-24T19:18:58.033Z,101161.44
2019-01-24T19:20:59.451Z,101158.09
2019-01-24T19:23:00.856Z,101164.42
2019-01-24T19:25:06.923Z,101161.36
2019-01-24T19:27:08.271Z,101164.08
2019-01-24T19:29:09.720Z,101156.89
2019-01-24T19:31:11.068Z,101161.30
2019-01-24T19:33:12.417Z,101162.14
2019-01-24T19:35:15.735Z,101160.98
2019-01-24T19:37:17.086Z,101163.10
2019-01-24T19:39:18.456Z,101164.31
2019-01-24T19:41:19.921Z,101159.41
2019-01-24T19:43:21.304Z,101157.61
2019-01-24T19:45:25.660Z,101159.52
2019-01-24T19:47:27.074Z,101159.20
2019-01-24T19:49:28.471Z,101159.70
2019-01-24T19:51:29.817Z,101169.09
2019-01-24T19:53:31.263Z,101165.05
2019-01-24T19:55:32.737Z,101165.49
2019-01-24T19:57:34.182Z,101173.22
2019-01-24T19:59:35.627Z,101174.04
2019-01-24T20:01:36.998Z,101178.17
2019-01-24T20:03:38.347Z,101172.78
2019-01-24T20:05:39.816Z,101171.13
2019-01-24T20:07:41.212Z,101172.55
2019-01-24T20:09:42.552Z,101179.41
2019-01-24T20:11:43.954Z,101180.59
2019-01-24T20:13:45.324Z,101184.22
2019-01-24T20:15:46.775Z,101182.56
2019-01-24T20:17:49.588Z,101180.91
2019-01-24T20:19:51.175Z,101182.59
2019-01-24T20:21:52.521Z,101192.12
2019-01-24T20:23:53.961Z,101189.16
2019-01-24T20:25:55.312Z,101193.70
2019-01-24T20:27:56.701Z,101193.41
2019-01-24T20:29:58.116Z,101191.62
2019-01-24T20:31:59.475Z,101187.24
2019-01-24T20:34:00.828Z,101186.37
2019-01-24T20:36:02.239Z,101188.53
2019-01-24T20:38:04.908Z,101187.61
2019-01-24T20:40:11.619Z,101192.91
2019-01-24T20:42:13.471Z,101194.34
2019-01-24T20:44:14.820Z,101196.80
2019-01-24T20:46:16.168Z,101204.08
2019-01-24T20:48:17.669Z,101194.88
2019-01-24T20:50:19.104Z,101193.57
2019-01-24T20:52:20.450Z,101199.21
2019-01-24T20:54:21.869Z,101200.86
2019-01-24T20:56:23.223Z,101196.90
2019-01-24T20:58:24.570Z,101195.09
2019-01-24T21:00:25.987Z,101194.63
2019-01-24T21:02:27.363Z,101197.42
2019-01-24T21:04:28.704Z,101204.58
2019-01-24T21:06:30.115Z,101207.21
2019-01-24T21:08:31.464Z,101206.22
2019-01-24T21:10:32.824Z,101206.52
2019-01-24T21:12:34.254Z,101202.23
2019-01-24T21:14:35.604Z,101207.67
2019-01-24T21:16:36.983Z,101205.03
2019-01-24T21:18:38.407Z,101203.91
2019-01-24T21:20:39.774Z,101204.66
2019-01-24T21:22:41.136Z,101206.17
2019-01-24T21:24:42.534Z,101205.04
2019-01-24T21:26:43.891Z,101203.42
2019-01-24T21:28:45.306Z,101208.69
2019-01-24T21:30:46.662Z,101204.70
2019-01-24T21:32:48.202Z,101205.11
2019-01-24T21:34:49.718Z,101209.84
2019-01-24T21:36:51.164Z,101205.27
2019-01-24T21:38:52.518Z,101203.88
2019-01-24T21:40:53.918Z,101216.16
2019-01-24T21:42:55.663Z,101217.41
2019-01-24T21:44:57.067Z,101211.83
2019-01-24T21:46:58.530Z,101208.83
2019-01-24T21:48:59.884Z,101218.20
2019-01-24T21:51:01.332Z,101215.05
2019-01-24T21:53:03.292Z,101219.61
2019-01-24T21:55:07.169Z,101218.09
2019-01-24T21:57:08.675Z,101214.02
2019-01-24T21:59:10.030Z,101216.41
2019-01-24T22:01:11.389Z,101212.49
2019-01-24T22:03:12.780Z,101216.66
2019-01-24T22:05:14.535Z,101212.33
2019-01-24T22:07:15.912Z,101214.42
2019-01-24T22:09:17.309Z,101213.16
2019-01-24T22:11:18.651Z,101221.44
2019-01-24T22:13:19.998Z,101218.30
2019-01-24T22:15:27.514Z,101217.34
2019-01-24T22:17:28.867Z,101217.09
2019-01-24T22:19:30.278Z,101212.45
2019-01-24T22:21:31.620Z,101214.55
2019-01-24T22:23:33.029Z,101210.63
2019-01-24T22:25:34.583Z,101212.50
2019-01-24T22:27:35.937Z,101211.07
2019-01-24T22:29:37.323Z,101210.38
2019-01-24T22:31:39.176Z,101207.80
2019-01-24T22:33:40.683Z,101206.16
2019-01-24T22:35:42.131Z,101208.05
2019-01-24T22:37:43.542Z,101205.15
2019-01-24T22:39:45.039Z,101200.55
2019-01-24T22:41:46.391Z,101203.30
2019-01-24T22:43:47.740Z,101204.52
2019-01-24T22:45:49.140Z,101200.69
2019-01-24T22:47:50.611Z,101192.24
2019-01-24T22:49:51.973Z,101196.99
2019-01-24T22:51:53.379Z,101193.30
2019-01-24T22:53:54.755Z,101192.06
2019-01-24T22:55:56.113Z,101192.86
2019-01-24T22:57:57.515Z,101194.62
2019-01-24T22:59:58.892Z,101190.52
2019-01-24T23:02:00.332Z,101192.96
2019-01-24T23:04:04.158Z,101192.20
2019-01-24T23:06:05.640Z,101186.66
2019-01-24T23:08:07.026Z,101187.25
2019-01-24T23:10:09.271Z,101189.86
2019-01-24T23:12:10.680Z,101185.23
2019-01-24T23:14:12.018Z,101184.73
2019-01-24T23:16:13.370Z,101188.54
2019-01-24T23:18:14.767Z,101186.42
2019-01-24T23:20:16.235Z,101195.70
2019-01-24T23:22:17.987Z,101183.19
2019-01-24T23:24:19.401Z,101186.30
2019-01-24T23:26:20.753Z,101181.48
2019-01-24T23:28:22.121Z,101185.60
2019-01-24T23:30:23.514Z,101185.79
2019-01-24T23:32:24.869Z,101190.06
2019-01-24T23:34:26.223Z,101183.72
2019-01-24T23:36:27.957Z,101187.33
2019-01-24T23:38:29.358Z,101187.97
2019-01-24T23:40:30.910Z,101191.81
2019-01-24T23:42:32.309Z,101189.09
2019-01-24T23:44:33.654Z,101187.09
2019-01-24T23:46:35.031Z,101180.45
2019-01-24T23:48:36.415Z,101178.88
2019-01-24T23:50:37.827Z,101182.51
2019-01-24T23:52:39.172Z,101176.79
2019-01-24T23:54:40.631Z,101186.01
2019-01-24T23:56:42.055Z,101180.14
2019-01-24T23:58:43.446Z,101180.08
